sensor_id;sensor_type;location;lat;lon;timestamp;pressure;altitude;pressure_sealevel;temperature;humidity
48778;BME280;34578;0.000;0.000;2022-07-15T00:00:46;96898.56;;;20.79;58.09
48778;BME280;34578;0.000;0.000;2022-07-15T00:05:46;96899.38;;;20.79;58.44
48778;BME280;34578;0.000;0.000;2022-07-15T00:10:47;96903.63;;;20.77;58.37
48778;BME280;34578;0.000;0.000;2022-07-15T00:15:47;96904.50;;;20.76;58.31
48778;BME280;34578;0.000;0.000;2022-07-15T00:20:48;96909.59;;;20.76;58.40
48778;BME280;34578;0.000;0.000;2022-07-15T00:25:48;96914.63;;;20.88;58.38
48778;BME280;34578;0.000;0.000;2022-07-15T00:30:48;96912.78;;;21.11;57.62
48778;BME280;34578;0.000;0.000;2022-07-15T00:35:49;96916.22;;;21.04;57.60
48778;BME280;34578;0.000;0.000;2022-07-15T00:40:50;96921.38;;;20.89;57.88
48778;BME280;34578;0.000;0.000;2022-07-15T00:45:50;96919.69;;;20.82;58.02
48778;BME280;34578;0.000;0.000;2022-07-15T00:50:52;96919.72;;;20.79;58.10
48778;BME280;34578;0.000;0.000;2022-07-15T00:55:59;96912.97;;;20.78;57.79
48778;BME280;34578;0.000;0.000;2022-07-15T01:01:00;96909.56;;;20.79;57.97
48778;BME280;34578;0.000;0.000;2022-07-15T01:06:02;96907.88;;;20.78;57.88
48778;BME280;34578;0.000;0.000;2022-07-15T01:11:03;96906.22;;;20.74;58.23
48778;BME280;34578;0.000;0.000;2022-07-15T01:16:04;96906.91;;;20.99;56.26
48778;BME280;34578;0.000;0.000;2022-07-15T01:21:05;96903.41;;;21.13;56.09
48778;BME280;34578;0.000;0.000;2022-07-15T01:26:07;96910.31;;;20.95;56.97
48778;BME280;34578;0.000;0.000;2022-07-15T01:31:09;96908.69;;;20.86;57.42
48778;BME280;34578;0.000;0.000;2022-07-15T01:36:10;96911.25;;;20.82;57.33
48778;BME280;34578;0.000;0.000;2022-07-15T01:41:12;96911.25;;;20.80;57.76
48778;BME280;34578;0.000;0.000;2022-07-15T01:46:12;96902.78;;;20.78;57.90
48778;BME280;34578;0.000;0.000;2022-07-15T01:51:13;96896.81;;;20.78;57.78
48778;BME280;34578;0.000;0.000;2022-07-15T01:56:14;96907.88;;;20.78;57.66
48778;BME280;34578;0.000;0.000;2022-07-15T02:01:14;96906.16;;;20.83;56.54
48778;BME280;34578;0.000;0.000;2022-07-15T02:06:18;96917.03;;;21.08;54.33
48778;BME280;34578;0.000;0.000;2022-07-15T02:11:18;96913.59;;;21.15;55.86
48778;BME280;34578;0.000;0.000;2022-07-15T02:16:22;96913.72;;;20.94;57.03
48778;BME280;34578;0.000;0.000;2022-07-15T02:21:24;96904.44;;;20.85;57.25
48778;BME280;34578;0.000;0.000;2022-07-15T02:26:26;96912.94;;;20.81;57.27
48778;BME280;34578;0.000;0.000;2022-07-15T02:31:29;96896.84;;;20.73;57.25
48778;BME280;34578;0.000;0.000;2022-07-15T02:36:30;96914.66;;;20.76;57.45
48778;BME280;34578;0.000;0.000;2022-07-15T02:41:31;96911.28;;;20.77;57.46
48778;BME280;34578;0.000;0.000;2022-07-15T02:46:34;96908.72;;;20.76;57.39
48778;BME280;34578;0.000;0.000;2022-07-15T02:51:35;96906.13;;;20.89;54.99
48778;BME280;34578;0.000;0.000;2022-07-15T02:56:35;96916.19;;;21.10;52.84
48778;BME280;34578;0.000;0.000;2022-07-15T03:01:36;96921.22;;;21.13;54.62
48778;BME280;34578;0.000;0.000;2022-07-15T03:06:37;96925.63;;;20.93;56.28
48778;BME280;34578;0.000;0.000;2022-07-15T03:11:37;96925.66;;;20.86;56.62
48778;BME280;34578;0.000;0.000;2022-07-15T03:16:38;96926.50;;;20.83;56.83
48778;BME280;34578;0.000;0.000;2022-07-15T03:21:39;96923.13;;;20.78;56.76
48778;BME280;34578;0.000;0.000;2022-07-15T03:26:39;96924.81;;;20.79;56.82
48778;BME280;34578;0.000;0.000;2022-07-15T03:31:40;96932.44;;;20.78;56.72
48778;BME280;34578;0.000;0.000;2022-07-15T03:36:41;96923.16;;;20.72;57.26
48778;BME280;34578;0.000;0.000;2022-07-15T03:41:43;96925.66;;;20.89;53.54
48778;BME280;34578;0.000;0.000;2022-07-15T03:46:45;96938.66;;;20.28;57.34
48778;BME280;34578;0.000;0.000;2022-07-15T03:51:47;96944.66;;;19.95;55.21
48778;BME280;34578;0.000;0.000;2022-07-15T03:56:48;96935.34;;;19.76;54.19
48778;BME280;34578;0.000;0.000;2022-07-15T04:01:52;96930.31;;;19.66;54.04
48778;BME280;34578;0.000;0.000;2022-07-15T04:06:52;96938.75;;;19.68;54.18
48778;BME280;34578;0.000;0.000;2022-07-15T04:11:53;96937.06;;;19.64;53.99
48778;BME280;34578;0.000;0.000;2022-07-15T04:16:53;96939.59;;;19.73;53.02
48778;BME280;34578;0.000;0.000;2022-07-15T04:22:20;96939.59;;;19.74;54.06
48778;BME280;34578;0.000;0.000;2022-07-15T04:27:24;96935.34;;;19.78;53.87
48778;BME280;34578;0.000;0.000;2022-07-15T04:32:25;96926.03;;;19.65;53.79
48778;BME280;34578;0.000;0.000;2022-07-15T04:37:27;96936.22;;;19.68;53.89
48778;BME280;34578;0.000;0.000;2022-07-15T04:42:30;96939.59;;;19.59;53.87
48778;BME280;34578;0.000;0.000;2022-07-15T04:47:31;96940.47;;;19.54;53.97
48778;BME280;34578;0.000;0.000;2022-07-15T04:52:34;96942.19;;;19.49;54.11
48778;BME280;34578;0.000;0.000;2022-07-15T04:57:35;96948.09;;;19.46;54.00
48778;BME280;34578;0.000;0.000;2022-07-15T05:02:37;96947.16;;;19.97;53.87
48778;BME280;34578;0.000;0.000;2022-07-15T05:07:37;96932.72;;;20.18;52.81
48778;BME280;34578;0.000;0.000;2022-07-15T05:12:38;96952.19;;;20.36;53.36
48778;BME280;34578;0.000;0.000;2022-07-15T05:17:39;96957.25;;;20.42;53.43
48778;BME280;34578;0.000;0.000;2022-07-15T05:22:45;96957.13;;;20.65;52.00
48778;BME280;34578;0.000;0.000;2022-07-15T05:27:46;96951.97;;;20.77;52.35
48778;BME280;34578;0.000;0.000;2022-07-15T05:32:49;96960.53;;;20.64;53.58
48778;BME280;34578;0.000;0.000;2022-07-15T05:37:55;96963.94;;;20.60;54.24
48778;BME280;34578;0.000;0.000;2022-07-15T05:43:01;96969.88;;;20.62;54.33
48778;BME280;34578;0.000;0.000;2022-07-15T05:48:03;96966.50;;;20.62;54.09
48778;BME280;34578;0.000;0.000;2022-07-15T05:53:08;96960.53;;;20.61;54.58
48778;BME280;34578;0.000;0.000;2022-07-15T05:58:09;96957.16;;;20.56;54.53
48778;BME280;34578;0.000;0.000;2022-07-15T06:03:12;96970.72;;;20.61;54.53
48778;BME280;34578;0.000;0.000;2022-07-15T06:08:16;96975.78;;;20.64;54.33
48778;BME280;34578;0.000;0.000;2022-07-15T06:13:18;96964.66;;;20.85;53.62
48778;BME280;34578;0.000;0.000;2022-07-15T06:18:21;96962.97;;;20.90;53.77
48778;BME280;34578;0.000;0.000;2022-07-15T06:23:23;96962.19;;;20.74;54.48
48778;BME280;34578;0.000;0.000;2022-07-15T06:28:24;96968.13;;;20.69;54.75
48778;BME280;34578;0.000;0.000;2022-07-15T06:33:24;96967.28;;;20.65;54.82
48778;BME280;34578;0.000;0.000;2022-07-15T06:38:25;96965.59;;;20.64;55.27
48778;BME280;34578;0.000;0.000;2022-07-15T06:43:26;96962.22;;;20.65;55.40
48778;BME280;34578;0.000;0.000;2022-07-15T06:48:41;96966.47;;;20.66;55.30
48778;BME280;34578;0.000;0.000;2022-07-15T06:53:43;96961.34;;;20.68;55.56
48778;BME280;34578;0.000;0.000;2022-07-15T06:58:43;96965.56;;;20.73;55.38
48778;BME280;34578;0.000;0.000;2022-07-15T07:03:45;96967.19;;;20.95;54.78
48778;BME280;34578;0.000;0.000;2022-07-15T07:08:46;96953.56;;;20.99;54.58
48778;BME280;34578;0.000;0.000;2022-07-15T07:13:49;96957.03;;;20.82;55.17
48778;BME280;34578;0.000;0.000;2022-07-15T07:18:49;96948.59;;;20.74;55.41
48778;BME280;34578;0.000;0.000;2022-07-15T07:23:50;96961.31;;;20.72;55.15
48778;BME280;34578;0.000;0.000;2022-07-15T07:28:51;96957.97;;;20.72;55.77
48778;BME280;34578;0.000;0.000;2022-07-15T07:33:56;96953.72;;;20.71;55.61
48778;BME280;34578;0.000;0.000;2022-07-15T07:38:56;96956.28;;;20.71;55.83
48778;BME280;34578;0.000;0.000;2022-07-15T07:43:57;96963.91;;;20.69;56.02
48778;BME280;34578;0.000;0.000;2022-07-15T07:48:58;96958.78;;;20.72;55.99
48778;BME280;34578;0.000;0.000;2022-07-15T07:53:58;96958.69;;;20.96;55.39
48778;BME280;34578;0.000;0.000;2022-07-15T07:58:59;96960.34;;;21.02;54.97
48778;BME280;34578;0.000;0.000;2022-07-15T08:03:59;96955.34;;;20.84;55.69
48778;BME280;34578;0.000;0.000;2022-07-15T08:09:00;96952.84;;;20.76;55.72
48778;BME280;34578;0.000;0.000;2022-07-15T08:14:00;96958.78;;;20.75;55.99
48778;BME280;34578;0.000;0.000;2022-07-15T08:19:00;96961.34;;;20.75;56.03
48778;BME280;34578;0.000;0.000;2022-07-15T08:24:01;96974.06;;;20.74;55.90
48778;BME280;34578;0.000;0.000;2022-07-15T08:29:01;96974.06;;;20.72;56.16
48778;BME280;34578;0.000;0.000;2022-07-15T08:34:03;96974.06;;;20.72;56.45
48778;BME280;34578;0.000;0.000;2022-07-15T08:39:04;96966.38;;;20.77;56.50
48778;BME280;34578;0.000;0.000;2022-07-15T08:44:05;96976.47;;;21.01;55.54
48778;BME280;34578;0.000;0.000;2022-07-15T08:49:08;96973.91;;;21.08;55.33
48778;BME280;34578;0.000;0.000;2022-07-15T08:54:13;96979.06;;;20.90;55.77
48778;BME280;34578;0.000;0.000;2022-07-15T08:59:13;96977.41;;;20.80;56.23
48778;BME280;34578;0.000;0.000;2022-07-15T09:04:15;96975.72;;;20.79;56.03
48778;BME280;34578;0.000;0.000;2022-07-15T09:14:27;97001.19;;;20.76;56.29
48778;BME280;34578;0.000;0.000;2022-07-15T09:20:00;96998.66;;;20.76;56.14
48778;BME280;34578;0.000;0.000;2022-07-15T09:25:07;96992.69;;;20.77;56.36
48778;BME280;34578;0.000;0.000;2022-07-15T09:30:14;96990.97;;;20.78;56.42
48778;BME280;34578;0.000;0.000;2022-07-15T09:35:34;96984.97;;;21.01;55.98
48778;BME280;34578;0.000;0.000;2022-07-15T09:40:52;96984.94;;;21.04;56.11
48778;BME280;34578;0.000;0.000;2022-07-15T09:45:57;96968.91;;;20.81;56.74
48778;BME280;34578;0.000;0.000;2022-07-15T09:51:00;96982.50;;;20.83;56.75
48778;BME280;34578;0.000;0.000;2022-07-15T09:56:02;96972.34;;;20.77;56.74
48778;BME280;34578;0.000;0.000;2022-07-15T10:01:02;96980.81;;;20.79;56.97
48778;BME280;34578;0.000;0.000;2022-07-15T10:06:04;96980.81;;;20.79;56.95
48778;BME280;34578;0.000;0.000;2022-07-15T10:11:08;96966.41;;;20.78;57.24
48778;BME280;34578;0.000;0.000;2022-07-15T10:27:38;96952.66;;;21.12;56.18
48778;BME280;34578;0.000;0.000;2022-07-15T10:33:18;96955.28;;;20.97;56.24
48778;BME280;34578;0.000;0.000;2022-07-15T10:38:38;96958.75;;;20.87;56.57
48778;BME280;34578;0.000;0.000;2022-07-15T10:43:50;96958.75;;;20.87;56.99
48778;BME280;34578;0.000;0.000;2022-07-15T10:53:58;96951.97;;;20.77;56.99
48778;BME280;34578;0.000;0.000;2022-07-15T11:04:13;96938.41;;;20.78;57.14
48778;BME280;34578;0.000;0.000;2022-07-15T11:09:46;96931.63;;;20.76;57.08
48778;BME280;34578;0.000;0.000;2022-07-15T11:15:04;96931.44;;;21.07;56.10
48778;BME280;34578;0.000;0.000;2022-07-15T11:20:08;96919.50;;;21.15;55.55
48778;BME280;34578;0.000;0.000;2022-07-15T11:25:27;96923.09;;;20.87;56.50
48778;BME280;34578;0.000;0.000;2022-07-15T11:35:51;96928.19;;;20.83;56.94
48778;BME280;34578;0.000;0.000;2022-07-15T11:40:56;96926.50;;;20.82;56.88
48778;BME280;34578;0.000;0.000;2022-07-15T11:46:15;96932.44;;;20.82;56.95
48778;BME280;34578;0.000;0.000;2022-07-15T11:51:16;96923.97;;;20.80;56.98
48778;BME280;34578;0.000;0.000;2022-07-15T11:56:16;96917.19;;;20.78;56.97
48778;BME280;34578;0.000;0.000;2022-07-15T12:01:21;96918.84;;;20.91;56.69
48778;BME280;34578;0.000;0.000;2022-07-15T12:06:27;96931.41;;;21.15;56.17
48778;BME280;34578;0.000;0.000;2022-07-15T12:11:30;96925.44;;;21.19;56.01
48778;BME280;34578;0.000;0.000;2022-07-15T12:16:34;96918.78;;;21.00;56.33
48778;BME280;34578;0.000;0.000;2022-07-15T12:21:36;96913.75;;;20.85;56.55
48778;BME280;34578;0.000;0.000;2022-07-15T12:26:39;96907.84;;;20.87;56.86
48778;BME280;34578;0.000;0.000;2022-07-15T12:31:41;96915.47;;;20.84;56.84
48778;BME280;34578;0.000;0.000;2022-07-15T12:36:43;96906.16;;;20.83;57.05
48778;BME280;34578;0.000;0.000;2022-07-15T12:41:45;96901.06;;;20.80;56.98
48778;BME280;34578;0.000;0.000;2022-07-15T12:51:56;96912.06;;;20.88;56.57
48778;BME280;34578;0.000;0.000;2022-07-15T12:56:57;96919.50;;;21.15;55.63
48778;BME280;34578;0.000;0.000;2022-07-15T13:02:01;96922.03;;;21.20;55.66
48778;BME280;34578;0.000;0.000;2022-07-15T13:07:02;96916.22;;;21.03;56.34
48778;BME280;34578;0.000;0.000;2022-07-15T13:12:03;96916.28;;;20.95;56.61
48778;BME280;34578;0.000;0.000;2022-07-15T13:17:04;96914.63;;;20.91;56.85
48778;BME280;34578;0.000;0.000;2022-07-15T13:22:04;96915.47;;;20.89;56.84
48778;BME280;34578;0.000;0.000;2022-07-15T13:27:04;96918.88;;;20.86;56.97
48778;BME280;34578;0.000;0.000;2022-07-15T13:32:05;96906.97;;;20.85;57.23
48778;BME280;34578;0.000;0.000;2022-07-15T13:37:06;96909.53;;;20.84;57.10
48778;BME280;34578;0.000;0.000;2022-07-15T13:42:06;96906.16;;;20.86;57.14
48778;BME280;34578;0.000;0.000;2022-07-15T13:47:06;96904.22;;;21.15;56.21
48778;BME280;34578;0.000;0.000;2022-07-15T13:52:07;96901.63;;;21.26;55.96
48778;BME280;34578;0.000;0.000;2022-07-15T13:57:07;96894.94;;;21.10;56.37
48778;BME280;34578;0.000;0.000;2022-07-15T14:02:08;96889.09;;;20.97;56.62
48778;BME280;34578;0.000;0.000;2022-07-15T14:07:08;96890.84;;;20.92;56.82
48778;BME280;34578;0.000;0.000;2022-07-15T14:12:09;96890.84;;;20.89;57.16
48778;BME280;34578;0.000;0.000;2022-07-15T14:17:09;96895.97;;;20.86;57.23
48778;BME280;34578;0.000;0.000;2022-07-15T14:22:10;96892.56;;;20.87;57.36
48778;BME280;34578;0.000;0.000;2022-07-15T14:27:10;96895.13;;;20.87;57.17
48778;BME280;34578;0.000;0.000;2022-07-15T14:32:10;96900.22;;;20.86;57.19
48778;BME280;34578;0.000;0.000;2022-07-15T14:37:11;96898.34;;;21.10;56.88
48778;BME280;34578;0.000;0.000;2022-07-15T14:42:11;96895.66;;;21.27;56.31
48778;BME280;34578;0.000;0.000;2022-07-15T14:47:12;96901.69;;;21.18;56.43
48778;BME280;34578;0.000;0.000;2022-07-15T14:52:13;96904.34;;;21.03;56.58
48778;BME280;34578;0.000;0.000;2022-07-15T14:57:13;96906.09;;;20.95;56.94
48778;BME280;34578;0.000;0.000;2022-07-15T15:02:13;96911.19;;;20.97;57.44
48778;BME280;34578;0.000;0.000;2022-07-15T15:07:14;96906.13;;;20.92;57.38
48778;BME280;34578;0.000;0.000;2022-07-15T15:12:14;96903.56;;;20.91;57.20
48778;BME280;34578;0.000;0.000;2022-07-15T15:17:15;96899.25;;;21.03;57.32
48778;BME280;34578;0.000;0.000;2022-07-15T15:22:15;96906.69;;;21.27;56.73
48778;BME280;34578;0.000;0.000;2022-07-15T15:27:15;96899.06;;;21.24;56.31
48778;BME280;34578;0.000;0.000;2022-07-15T15:32:16;96900.03;;;21.10;56.69
48778;BME280;34578;0.000;0.000;2022-07-15T15:37:17;96896.72;;;20.99;57.05
48778;BME280;34578;0.000;0.000;2022-07-15T15:42:17;96895.09;;;20.93;57.36
48778;BME280;34578;0.000;0.000;2022-07-15T15:47:18;96881.53;;;20.91;57.43
48778;BME280;34578;0.000;0.000;2022-07-15T15:52:18;96883.22;;;20.89;57.37
48778;BME280;34578;0.000;0.000;2022-07-15T15:57:18;96888.31;;;20.89;57.34
48778;BME280;34578;0.000;0.000;2022-07-15T16:02:19;96887.41;;;20.96;58.39
48778;BME280;34578;0.000;0.000;2022-07-15T16:07:19;96880.41;;;21.24;57.47
48778;BME280;34578;0.000;0.000;2022-07-15T16:12:19;96882.09;;;21.26;56.89
48778;BME280;34578;0.000;0.000;2022-07-15T16:17:20;96878.81;;;21.12;57.03
48778;BME280;34578;0.000;0.000;2022-07-15T16:22:20;96880.59;;;21.01;57.29
48778;BME280;34578;0.000;0.000;2022-07-15T16:27:39;96873.00;;;20.95;57.31
48778;BME280;34578;0.000;0.000;2022-07-15T16:32:40;96889.16;;;20.85;58.12
48778;BME280;34578;0.000;0.000;2022-07-15T16:37:40;96878.91;;;20.97;57.55
48778;BME280;34578;0.000;0.000;2022-07-15T16:42:41;96894.94;;;21.10;57.70
48778;BME280;34578;0.000;0.000;2022-07-15T16:47:42;96886.28;;;21.32;56.62
48778;BME280;34578;0.000;0.000;2022-07-15T16:52:43;96890.56;;;21.28;56.59
48778;BME280;34578;0.000;0.000;2022-07-15T16:57:44;96892.41;;;21.11;56.96
48778;BME280;34578;0.000;0.000;2022-07-15T17:02:44;96900.09;;;21.04;57.16
48778;BME280;34578;0.000;0.000;2022-07-15T17:07:44;96902.66;;;20.99;57.33
48778;BME280;34578;0.000;0.000;2022-07-15T17:12:45;96900.13;;;20.95;57.54
48778;BME280;34578;0.000;0.000;2022-07-15T17:17:45;96901.84;;;20.94;57.61
48778;BME280;34578;0.000;0.000;2022-07-15T17:22:46;96895.94;;;20.92;57.52
48778;BME280;34578;0.000;0.000;2022-07-15T17:27:47;96902.66;;;21.02;58.00
48778;BME280;34578;0.000;0.000;2022-07-15T17:32:47;96897.38;;;21.26;56.96
48778;BME280;34578;0.000;0.000;2022-07-15T17:37:48;96905.81;;;21.34;56.60
48778;BME280;34578;0.000;0.000;2022-07-15T17:42:48;96903.41;;;21.15;57.07
48778;BME280;34578;0.000;0.000;2022-07-15T17:47:48;96908.56;;;21.04;57.32
48778;BME280;34578;0.000;0.000;2022-07-15T17:52:49;96899.28;;;21.00;57.34
48778;BME280;34578;0.000;0.000;2022-07-15T17:57:49;96906.06;;;21.00;57.52
48778;BME280;34578;0.000;0.000;2022-07-15T18:02:49;96900.91;;;21.10;58.48
48778;BME280;34578;0.000;0.000;2022-07-15T18:07:50;96908.50;;;21.13;58.38
48778;BME280;34578;0.000;0.000;2022-07-15T18:12:50;96904.09;;;21.36;57.11
48778;BME280;34578;0.000;0.000;2022-07-15T18:17:52;96902.41;;;21.35;56.85
48778;BME280;34578;0.000;0.000;2022-07-15T18:22:52;96902.53;;;21.14;56.95
48778;BME280;34578;0.000;0.000;2022-07-15T18:27:52;96907.72;;;21.05;57.41
48778;BME280;34578;0.000;0.000;2022-07-15T18:32:53;96910.28;;;21.04;57.43
48778;BME280;34578;0.000;0.000;2022-07-15T18:37:53;96910.28;;;21.01;57.56
48778;BME280;34578;0.000;0.000;2022-07-15T18:42:54;96907.78;;;20.98;57.44
48778;BME280;34578;0.000;0.000;2022-07-15T18:47:54;96909.47;;;20.97;57.60
48778;BME280;34578;0.000;0.000;2022-07-15T18:52:54;96914.34;;;21.27;57.61
48778;BME280;34578;0.000;0.000;2022-07-15T18:57:55;96908.31;;;21.36;56.54
48778;BME280;34578;0.000;0.000;2022-07-15T19:02:55;96911.00;;;21.18;57.12
48778;BME280;34578;0.000;0.000;2022-07-15T19:07:56;96928.06;;;21.08;57.21
48778;BME280;34578;0.000;0.000;2022-07-15T19:12:56;96932.34;;;21.03;57.22
48778;BME280;34578;0.000;0.000;2022-07-15T19:17:57;96936.59;;;21.01;57.43
48778;BME280;34578;0.000;0.000;2022-07-15T19:22:58;96945.97;;;20.98;57.76
48778;BME280;34578;0.000;0.000;2022-07-15T19:27:58;96953.59;;;20.96;57.69
48778;BME280;34578;0.000;0.000;2022-07-15T19:32:58;96954.41;;;21.04;58.16
48778;BME280;34578;0.000;0.000;2022-07-15T19:37:59;96955.06;;;21.30;57.18
48778;BME280;34578;0.000;0.000;2022-07-15T19:42:59;96964.34;;;21.39;56.63
48778;BME280;34578;0.000;0.000;2022-07-15T19:48:00;96967.84;;;21.20;56.99
48778;BME280;34578;0.000;0.000;2022-07-15T19:53:00;96976.41;;;21.10;57.07
48778;BME280;34578;0.000;0.000;2022-07-15T19:58:01;96983.25;;;21.05;57.15
48778;BME280;34578;0.000;0.000;2022-07-15T20:03:04;96991.75;;;21.01;57.29
48778;BME280;34578;0.000;0.000;2022-07-15T20:08:05;96996.00;;;20.97;57.23
48778;BME280;34578;0.000;0.000;2022-07-15T20:13:05;97004.50;;;20.96;57.36
48778;BME280;34578;0.000;0.000;2022-07-15T20:18:06;97009.59;;;20.96;57.30
48778;BME280;34578;0.000;0.000;2022-07-15T20:23:06;97006.03;;;21.24;55.30
48778;BME280;34578;0.000;0.000;2022-07-15T20:28:07;97027.16;;;21.40;54.59
48778;BME280;34578;0.000;0.000;2022-07-15T20:33:08;97021.31;;;21.26;55.62
48778;BME280;34578;0.000;0.000;2022-07-15T20:38:09;97015.44;;;21.12;56.76
48778;BME280;34578;0.000;0.000;2022-07-15T20:43:09;97024.81;;;21.05;56.63
48778;BME280;34578;0.000;0.000;2022-07-15T20:48:09;97032.47;;;21.02;56.81
48778;BME280;34578;0.000;0.000;2022-07-15T20:53:12;97024.03;;;20.94;56.81
48778;BME280;34578;0.000;0.000;2022-07-15T20:58:12;97033.34;;;21.01;56.71
48778;BME280;34578;0.000;0.000;2022-07-15T21:03:13;97030.06;;;20.65;57.34
48778;BME280;34578;0.000;0.000;2022-07-15T21:08:14;97036.06;;;20.47;55.10
48778;BME280;34578;0.000;0.000;2022-07-15T21:13:15;97038.63;;;20.28;54.00
48778;BME280;34578;0.000;0.000;2022-07-15T21:18:15;97027.66;;;20.13;53.71
48778;BME280;34578;0.000;0.000;2022-07-15T21:23:16;97035.28;;;20.01;53.32
48778;BME280;34578;0.000;0.000;2022-07-15T21:28:16;97034.47;;;20.06;53.36
48778;BME280;34578;0.000;0.000;2022-07-15T21:33:16;97041.22;;;20.00;53.02
48778;BME280;34578;0.000;0.000;2022-07-15T21:38:17;97046.28;;;19.97;53.13
48778;BME280;34578;0.000;0.000;2022-07-15T21:43:18;97047.97;;;19.98;52.83
48778;BME280;34578;0.000;0.000;2022-07-15T21:48:19;97034.44;;;19.85;52.45
48778;BME280;34578;0.000;0.000;2022-07-15T21:53:19;97042.06;;;19.87;52.70
48778;BME280;34578;0.000;0.000;2022-07-15T21:58:20;97044.63;;;19.84;52.53
48778;BME280;34578;0.000;0.000;2022-07-15T22:03:20;97047.13;;;19.87;52.15
48778;BME280;34578;0.000;0.000;2022-07-15T22:08:21;97038.66;;;19.82;52.35
48778;BME280;34578;0.000;0.000;2022-07-15T22:13:22;97037.81;;;19.75;52.60
48778;BME280;34578;0.000;0.000;2022-07-15T22:18:22;97037.84;;;19.68;52.38
48778;BME280;34578;0.000;0.000;2022-07-15T22:23:23;97038.69;;;19.67;52.38
48778;BME280;34578;0.000;0.000;2022-07-15T22:28:23;97035.28;;;19.59;51.94
48778;BME280;34578;0.000;0.000;2022-07-15T22:33:23;97047.13;;;19.57;52.69
48778;BME280;34578;0.000;0.000;2022-07-15T22:38:24;97051.38;;;19.53;52.49
48778;BME280;34578;0.000;0.000;2022-07-15T22:43:24;97042.91;;;19.50;52.61
48778;BME280;34578;0.000;0.000;2022-07-15T22:48:24;97040.34;;;19.47;53.01
48778;BME280;34578;0.000;0.000;2022-07-15T22:53:25;97040.31;;;19.32;53.32
48778;BME280;34578;0.000;0.000;2022-07-15T22:58:25;97044.56;;;19.36;53.07
48778;BME280;34578;0.000;0.000;2022-07-15T23:03:27;97040.31;;;19.32;53.18
48778;BME280;34578;0.000;0.000;2022-07-15T23:08:27;97042.88;;;19.26;52.96
48778;BME280;34578;0.000;0.000;2022-07-15T23:13:27;97053.00;;;19.27;53.06
48778;BME280;34578;0.000;0.000;2022-07-15T23:18:28;97053.84;;;19.22;53.21
48778;BME280;34578;0.000;0.000;2022-07-15T23:23:28;97047.03;;;19.18;53.21
48778;BME280;34578;0.000;0.000;2022-07-15T23:28:29;97061.41;;;19.11;53.65
48778;BME280;34578;0.000;0.000;2022-07-15T23:33:29;97057.16;;;19.03;53.96
48778;BME280;34578;0.000;0.000;2022-07-15T23:38:30;97058.81;;;18.95;54.35
48778;BME280;34578;0.000;0.000;2022-07-15T23:43:30;97044.44;;;18.98;53.93
48778;BME280;34578;0.000;0.000;2022-07-15T23:48:30;97059.66;;;19.01;53.98
48778;BME280;34578;0.000;0.000;2022-07-15T23:53:31;97060.53;;;18.99;53.75
48778;BME280;34578;0.000;0.000;2022-07-15T23:58:32;97063.06;;;18.97;53.67
